Hong Xiang 2 — BYBA — position and weather

sailwx.info

Track history (hours):
 
Tides and Currents Weather Stations Pressure Air Temp Water Temp Dewpoint Dewpoint Depression Visibility Wind Speed Wind Dir Waves Ship Positions

Hong Xiang 2

Last reported at 2015-Sep-01 08:21 UTC. Time now 2015-Sep-01 12:10 UTC.
Position N 23°12' E 116°45'.

Length 96 m; draft 4.5 m.

Type: Ship (hazmat cat A). MMSI: 413413000.

Date/timePositionNaut miles runAvg speedWind from/ knotsBaromVisibWave heightAir tempDewpointWater temp
2015-Sep-01 08:21N 23°12' E 116°45'0 0.0
2015-Sep-01 07:33N 23°12' E 116°45'3 3.3
2015-Sep-01 06:29N 23°13' E 116°49'9 9.3
2015-Sep-01 05:33N 23°21' E 116°44'8 7.8
2015-Sep-01 04:33N 23°21' E 116°35'7 7.1
2015-Sep-01 03:33N 23°27' E 116°30'0 0.0
2015-Aug-31 07:19N 23°27' E 116°30'5 6.9
2015-Aug-31 06:33N 23°22' E 116°34'9 9.4
2015-Aug-31 05:33N 23°21' E 116°44'10 9.5
2015-Aug-31 04:32N 23°13' E 116°50'  
2015-Aug-25 06:28N 23°03' E 116°40'1110.9
2015-Aug-25 05:29N 23°11' E 116°48'9 9.9
2015-Aug-25 04:33N 23°20' E 116°45'1111.0
2015-Aug-25 03:33N 23°23' E 116°34'7 0.1
2015-Aug-23 06:33N 23°27' E 116°28'7 6.9
2015-Aug-23 05:34N 23°23' E 116°34'7 6.7
2015-Aug-23 04:34N 23°21' E 116°41'7 6.7
2015-Aug-23 03:34N 23°18' E 116°47'  
Track history (hours):
 
Tides and Currents Weather Stations Pressure Air Temp Water Temp Dewpoint Dewpoint Depression Visibility Wind Speed Wind Dir Waves Ship Positions

Hong Xiang 2

Last reported at 2015-Sep-01 08:21 UTC. Time now 2015-Sep-01 12:10 UTC.
Position N 23°12' E 116°45'.

Length 96 m; draft 4.5 m.

Type: Ship (hazmat cat A). MMSI: 413413000.

Date/timePositionNaut miles runAvg speedWind from/ knotsBaromVisibWave heightAir tempDewpointWater temp
2015-Sep-01 08:21N 23°12' E 116°45'0 0.0
2015-Sep-01 07:33N 23°12' E 116°45'3 3.3
2015-Sep-01 06:29N 23°13' E 116°49'9 9.3
2015-Sep-01 05:33N 23°21' E 116°44'8 7.8
2015-Sep-01 04:33N 23°21' E 116°35'7 7.1
2015-Sep-01 03:33N 23°27' E 116°30'0 0.0
2015-Aug-31 07:19N 23°27' E 116°30'5 6.9
2015-Aug-31 06:33N 23°22' E 116°34'9 9.4
2015-Aug-31 05:33N 23°21' E 116°44'10 9.5
2015-Aug-31 04:32N 23°13' E 116°50'  
2015-Aug-25 06:28N 23°03' E 116°40'1110.9
2015-Aug-25 05:29N 23°11' E 116°48'9 9.9
2015-Aug-25 04:33N 23°20' E 116°45'1111.0
2015-Aug-25 03:33N 23°23' E 116°34'7 0.1
2015-Aug-23 06:33N 23°27' E 116°28'7 6.9
2015-Aug-23 05:34N 23°23' E 116°34'7 6.7
2015-Aug-23 04:34N 23°21' E 116°41'7 6.7
2015-Aug-23 03:34N 23°18' E 116°47'  

Dump ship's entire track history